sensor_id;sensor_type;location;lat;lon;timestamp;temperature;humidity
21487;DHT22;10905;50.822;4.336;2022-07-29T00:00:44;20.90;99.90
21487;DHT22;10905;50.822;4.336;2022-07-29T00:03:10;20.80;99.90
21487;DHT22;10905;50.822;4.336;2022-07-29T00:05:38;20.80;99.90
21487;DHT22;10905;50.822;4.336;2022-07-29T00:08:03;20.70;99.90
21487;DHT22;10905;50.822;4.336;2022-07-29T00:10:29;20.70;99.90
21487;DHT22;10905;50.822;4.336;2022-07-29T00:12:54;20.60;99.90
21487;DHT22;10905;50.822;4.336;2022-07-29T00:15:20;20.60;99.90
21487;DHT22;10905;50.822;4.336;2022-07-29T00:17:45;20.60;99.90
21487;DHT22;10905;50.822;4.336;2022-07-29T00:20:11;20.70;99.90
21487;DHT22;10905;50.822;4.336;2022-07-29T00:22:37;20.60;99.90
21487;DHT22;10905;50.822;4.336;2022-07-29T00:25:03;20.70;99.90
21487;DHT22;10905;50.822;4.336;2022-07-29T00:27:28;20.60;99.90
21487;DHT22;10905;50.822;4.336;2022-07-29T00:29:54;20.60;99.90
21487;DHT22;10905;50.822;4.336;2022-07-29T00:32:19;20.70;99.90
21487;DHT22;10905;50.822;4.336;2022-07-29T00:34:45;20.70;99.90
21487;DHT22;10905;50.822;4.336;2022-07-29T00:37:29;20.60;99.90
21487;DHT22;10905;50.822;4.336;2022-07-29T00:39:54;20.60;99.90
21487;DHT22;10905;50.822;4.336;2022-07-29T00:42:20;20.50;99.90
21487;DHT22;10905;50.822;4.336;2022-07-29T00:44:45;20.50;99.90
21487;DHT22;10905;50.822;4.336;2022-07-29T00:47:11;20.50;99.90
21487;DHT22;10905;50.822;4.336;2022-07-29T00:49:37;20.40;99.90
21487;DHT22;10905;50.822;4.336;2022-07-29T00:52:04;20.40;99.90
21487;DHT22;10905;50.822;4.336;2022-07-29T00:54:30;20.40;99.90
21487;DHT22;10905;50.822;4.336;2022-07-29T00:56:57;20.40;99.90
21487;DHT22;10905;50.822;4.336;2022-07-29T00:59:23;20.40;99.90
21487;DHT22;10905;50.822;4.336;2022-07-29T01:01:48;20.40;99.90
21487;DHT22;10905;50.822;4.336;2022-07-29T01:04:14;20.50;99.90
21487;DHT22;10905;50.822;4.336;2022-07-29T01:06:39;20.50;99.90
21487;DHT22;10905;50.822;4.336;2022-07-29T01:09:05;20.40;99.90
21487;DHT22;10905;50.822;4.336;2022-07-29T01:11:31;20.40;99.90
21487;DHT22;10905;50.822;4.336;2022-07-29T01:13:56;20.30;99.90
21487;DHT22;10905;50.822;4.336;2022-07-29T01:16:28;20.10;99.90
21487;DHT22;10905;50.822;4.336;2022-07-29T01:18:58;20.10;99.90
21487;DHT22;10905;50.822;4.336;2022-07-29T01:31:10;20.10;99.90
21487;DHT22;10905;50.822;4.336;2022-07-29T01:33:38;20.10;99.90
21487;DHT22;10905;50.822;4.336;2022-07-29T01:36:20;20.00;99.90
21487;DHT22;10905;50.822;4.336;2022-07-29T01:38:49;19.90;99.90
21487;DHT22;10905;50.822;4.336;2022-07-29T01:41:16;20.00;99.90
21487;DHT22;10905;50.822;4.336;2022-07-29T01:43:44;19.90;99.90
21487;DHT22;10905;50.822;4.336;2022-07-29T01:46:14;19.90;99.90
21487;DHT22;10905;50.822;4.336;2022-07-29T01:48:42;19.80;99.90
21487;DHT22;10905;50.822;4.336;2022-07-29T01:51:19;19.70;99.90
21487;DHT22;10905;50.822;4.336;2022-07-29T01:56:11;19.80;99.90
21487;DHT22;10905;50.822;4.336;2022-07-29T01:58:38;19.70;99.90
21487;DHT22;10905;50.822;4.336;2022-07-29T02:01:04;19.70;99.90
21487;DHT22;10905;50.822;4.336;2022-07-29T02:03:31;19.60;99.90
21487;DHT22;10905;50.822;4.336;2022-07-29T02:05:58;19.60;99.90
21487;DHT22;10905;50.822;4.336;2022-07-29T02:08:25;19.50;99.90
21487;DHT22;10905;50.822;4.336;2022-07-29T02:10:51;19.50;99.90
21487;DHT22;10905;50.822;4.336;2022-07-29T02:13:17;19.50;99.90
21487;DHT22;10905;50.822;4.336;2022-07-29T02:15:43;19.50;99.90
21487;DHT22;10905;50.822;4.336;2022-07-29T02:18:14;19.50;99.90
21487;DHT22;10905;50.822;4.336;2022-07-29T02:20:41;19.50;99.90
21487;DHT22;10905;50.822;4.336;2022-07-29T02:23:08;19.50;99.90
21487;DHT22;10905;50.822;4.336;2022-07-29T02:25:35;19.40;99.90
21487;DHT22;10905;50.822;4.336;2022-07-29T02:28:01;19.40;99.90
21487;DHT22;10905;50.822;4.336;2022-07-29T02:30:27;19.40;99.90
21487;DHT22;10905;50.822;4.336;2022-07-29T02:32:54;19.40;99.90
21487;DHT22;10905;50.822;4.336;2022-07-29T02:35:19;19.20;99.90
21487;DHT22;10905;50.822;4.336;2022-07-29T02:37:46;19.30;99.90
21487;DHT22;10905;50.822;4.336;2022-07-29T02:40:33;19.20;99.90
21487;DHT22;10905;50.822;4.336;2022-07-29T02:43:00;19.20;99.90
21487;DHT22;10905;50.822;4.336;2022-07-29T02:45:26;19.20;99.90
21487;DHT22;10905;50.822;4.336;2022-07-29T02:47:53;19.20;99.90
21487;DHT22;10905;50.822;4.336;2022-07-29T02:50:21;19.20;99.90
21487;DHT22;10905;50.822;4.336;2022-07-29T02:53:00;19.20;99.90
21487;DHT22;10905;50.822;4.336;2022-07-29T02:55:32;19.30;99.90
21487;DHT22;10905;50.822;4.336;2022-07-29T02:58:02;19.20;99.90
21487;DHT22;10905;50.822;4.336;2022-07-29T03:00:28;19.20;99.90
21487;DHT22;10905;50.822;4.336;2022-07-29T03:02:56;19.00;99.90
21487;DHT22;10905;50.822;4.336;2022-07-29T03:05:21;18.90;99.90
21487;DHT22;10905;50.822;4.336;2022-07-29T03:07:58;19.10;99.90
21487;DHT22;10905;50.822;4.336;2022-07-29T03:10:25;19.00;99.90
21487;DHT22;10905;50.822;4.336;2022-07-29T03:12:51;19.10;99.90
21487;DHT22;10905;50.822;4.336;2022-07-29T03:15:18;19.00;99.90
21487;DHT22;10905;50.822;4.336;2022-07-29T03:17:44;19.10;99.90
21487;DHT22;10905;50.822;4.336;2022-07-29T03:20:10;19.10;99.90
21487;DHT22;10905;50.822;4.336;2022-07-29T03:22:39;19.10;99.90
21487;DHT22;10905;50.822;4.336;2022-07-29T03:25:11;19.10;99.90
21487;DHT22;10905;50.822;4.336;2022-07-29T03:27:37;19.00;99.90
21487;DHT22;10905;50.822;4.336;2022-07-29T03:30:03;19.10;99.90
21487;DHT22;10905;50.822;4.336;2022-07-29T03:32:29;19.10;99.90
21487;DHT22;10905;50.822;4.336;2022-07-29T03:34:54;19.00;99.90
21487;DHT22;10905;50.822;4.336;2022-07-29T03:37:20;18.90;99.90
21487;DHT22;10905;50.822;4.336;2022-07-29T03:39:45;18.70;99.90
21487;DHT22;10905;50.822;4.336;2022-07-29T03:42:11;18.80;99.90
21487;DHT22;10905;50.822;4.336;2022-07-29T03:44:39;18.60;99.90
21487;DHT22;10905;50.822;4.336;2022-07-29T03:47:06;18.70;99.90
21487;DHT22;10905;50.822;4.336;2022-07-29T03:49:32;18.70;99.90
21487;DHT22;10905;50.822;4.336;2022-07-29T03:51:57;18.70;99.90
21487;DHT22;10905;50.822;4.336;2022-07-29T03:54:23;18.70;99.90
21487;DHT22;10905;50.822;4.336;2022-07-29T03:56:49;18.60;99.90
21487;DHT22;10905;50.822;4.336;2022-07-29T03:59:15;18.50;99.90
21487;DHT22;10905;50.822;4.336;2022-07-29T04:01:42;18.40;99.90
21487;DHT22;10905;50.822;4.336;2022-07-29T04:04:07;18.30;99.90
21487;DHT22;10905;50.822;4.336;2022-07-29T04:06:43;18.30;99.90
21487;DHT22;10905;50.822;4.336;2022-07-29T04:09:08;18.30;99.90
21487;DHT22;10905;50.822;4.336;2022-07-29T04:11:35;18.40;99.90
21487;DHT22;10905;50.822;4.336;2022-07-29T04:14:01;18.50;99.90
21487;DHT22;10905;50.822;4.336;2022-07-29T04:16:26;18.40;99.90
21487;DHT22;10905;50.822;4.336;2022-07-29T04:18:52;18.60;99.90
21487;DHT22;10905;50.822;4.336;2022-07-29T04:21:17;18.60;99.90
21487;DHT22;10905;50.822;4.336;2022-07-29T04:23:43;18.60;99.90
21487;DHT22;10905;50.822;4.336;2022-07-29T04:26:10;18.60;99.90
21487;DHT22;10905;50.822;4.336;2022-07-29T04:28:36;18.60;99.90
21487;DHT22;10905;50.822;4.336;2022-07-29T04:31:01;18.60;99.90
21487;DHT22;10905;50.822;4.336;2022-07-29T04:33:27;18.60;99.90
21487;DHT22;10905;50.822;4.336;2022-07-29T04:35:52;18.60;99.90
21487;DHT22;10905;50.822;4.336;2022-07-29T04:38:18;18.40;99.90
21487;DHT22;10905;50.822;4.336;2022-07-29T04:40:43;18.40;99.90
21487;DHT22;10905;50.822;4.336;2022-07-29T04:43:09;18.40;99.90
21487;DHT22;10905;50.822;4.336;2022-07-29T04:45:34;18.50;99.90
21487;DHT22;10905;50.822;4.336;2022-07-29T04:48:00;18.60;99.90
21487;DHT22;10905;50.822;4.336;2022-07-29T04:50:25;18.40;99.90
21487;DHT22;10905;50.822;4.336;2022-07-29T04:52:51;18.30;99.90
21487;DHT22;10905;50.822;4.336;2022-07-29T04:55:16;18.30;99.90
21487;DHT22;10905;50.822;4.336;2022-07-29T04:57:42;18.20;99.90
21487;DHT22;10905;50.822;4.336;2022-07-29T05:00:08;18.20;99.90
21487;DHT22;10905;50.822;4.336;2022-07-29T05:02:33;18.10;99.90
21487;DHT22;10905;50.822;4.336;2022-07-29T05:04:59;18.10;99.90
21487;DHT22;10905;50.822;4.336;2022-07-29T05:07:24;18.20;99.90
21487;DHT22;10905;50.822;4.336;2022-07-29T05:09:50;18.20;99.90
21487;DHT22;10905;50.822;4.336;2022-07-29T05:12:15;18.30;99.90
21487;DHT22;10905;50.822;4.336;2022-07-29T05:14:41;18.30;99.90
21487;DHT22;10905;50.822;4.336;2022-07-29T05:17:06;18.30;99.90
21487;DHT22;10905;50.822;4.336;2022-07-29T05:19:33;18.20;99.90
21487;DHT22;10905;50.822;4.336;2022-07-29T05:21:58;18.30;99.90
21487;DHT22;10905;50.822;4.336;2022-07-29T05:24:25;18.50;99.90
21487;DHT22;10905;50.822;4.336;2022-07-29T05:26:50;18.50;99.90
21487;DHT22;10905;50.822;4.336;2022-07-29T05:29:16;18.40;99.90
21487;DHT22;10905;50.822;4.336;2022-07-29T05:31:41;18.40;99.90
21487;DHT22;10905;50.822;4.336;2022-07-29T05:34:07;18.40;99.90
21487;DHT22;10905;50.822;4.336;2022-07-29T05:36:32;18.50;99.90
21487;DHT22;10905;50.822;4.336;2022-07-29T05:38:58;18.50;99.90
21487;DHT22;10905;50.822;4.336;2022-07-29T05:41:23;18.60;99.90
21487;DHT22;10905;50.822;4.336;2022-07-29T05:43:49;18.60;99.90
21487;DHT22;10905;50.822;4.336;2022-07-29T05:46:14;18.70;99.90
21487;DHT22;10905;50.822;4.336;2022-07-29T05:48:40;18.80;99.90
21487;DHT22;10905;50.822;4.336;2022-07-29T05:51:05;18.60;99.90
21487;DHT22;10905;50.822;4.336;2022-07-29T05:53:31;18.60;99.90
21487;DHT22;10905;50.822;4.336;2022-07-29T05:55:57;18.70;99.90
21487;DHT22;10905;50.822;4.336;2022-07-29T05:58:22;18.60;99.90
21487;DHT22;10905;50.822;4.336;2022-07-29T06:00:48;18.60;99.90
21487;DHT22;10905;50.822;4.336;2022-07-29T06:03:13;18.70;99.90
21487;DHT22;10905;50.822;4.336;2022-07-29T06:05:39;18.80;99.90
21487;DHT22;10905;50.822;4.336;2022-07-29T06:08:05;18.70;99.90
21487;DHT22;10905;50.822;4.336;2022-07-29T06:10:36;18.70;99.90
21487;DHT22;10905;50.822;4.336;2022-07-29T06:13:02;18.80;99.90
21487;DHT22;10905;50.822;4.336;2022-07-29T06:15:27;18.80;99.90
21487;DHT22;10905;50.822;4.336;2022-07-29T06:17:53;18.90;99.90
21487;DHT22;10905;50.822;4.336;2022-07-29T06:20:18;19.00;99.90
21487;DHT22;10905;50.822;4.336;2022-07-29T06:22:44;19.20;99.90
21487;DHT22;10905;50.822;4.336;2022-07-29T06:25:10;19.10;99.90
21487;DHT22;10905;50.822;4.336;2022-07-29T06:27:35;19.20;99.90
21487;DHT22;10905;50.822;4.336;2022-07-29T06:30:01;19.20;99.90
21487;DHT22;10905;50.822;4.336;2022-07-29T06:32:27;19.30;99.90
21487;DHT22;10905;50.822;4.336;2022-07-29T06:34:52;19.40;99.90
21487;DHT22;10905;50.822;4.336;2022-07-29T06:37:18;19.40;99.90
21487;DHT22;10905;50.822;4.336;2022-07-29T06:39:43;19.50;99.90
21487;DHT22;10905;50.822;4.336;2022-07-29T06:42:09;19.70;99.90
21487;DHT22;10905;50.822;4.336;2022-07-29T06:44:34;19.70;99.90
21487;DHT22;10905;50.822;4.336;2022-07-29T06:47:00;19.40;99.90
21487;DHT22;10905;50.822;4.336;2022-07-29T06:49:26;19.70;99.90
21487;DHT22;10905;50.822;4.336;2022-07-29T06:51:53;19.90;99.90
21487;DHT22;10905;50.822;4.336;2022-07-29T06:54:18;20.20;99.90
21487;DHT22;10905;50.822;4.336;2022-07-29T06:56:44;20.40;99.90
21487;DHT22;10905;50.822;4.336;2022-07-29T06:59:10;20.50;99.90
21487;DHT22;10905;50.822;4.336;2022-07-29T07:01:36;20.50;99.90
21487;DHT22;10905;50.822;4.336;2022-07-29T07:04:02;20.60;99.90
21487;DHT22;10905;50.822;4.336;2022-07-29T07:06:27;20.60;99.90
21487;DHT22;10905;50.822;4.336;2022-07-29T07:08:53;20.50;99.90
21487;DHT22;10905;50.822;4.336;2022-07-29T07:11:18;20.40;99.90
21487;DHT22;10905;50.822;4.336;2022-07-29T07:13:44;20.40;99.90
21487;DHT22;10905;50.822;4.336;2022-07-29T07:16:10;20.50;99.90
21487;DHT22;10905;50.822;4.336;2022-07-29T07:18:35;20.70;99.90
21487;DHT22;10905;50.822;4.336;2022-07-29T07:21:00;20.70;99.90
21487;DHT22;10905;50.822;4.336;2022-07-29T07:23:26;20.50;99.90
21487;DHT22;10905;50.822;4.336;2022-07-29T07:25:51;20.30;99.90
21487;DHT22;10905;50.822;4.336;2022-07-29T07:28:17;20.30;99.90
21487;DHT22;10905;50.822;4.336;2022-07-29T07:30:44;20.40;99.90
21487;DHT22;10905;50.822;4.336;2022-07-29T07:33:09;20.60;99.90
21487;DHT22;10905;50.822;4.336;2022-07-29T07:35:35;20.50;99.90
21487;DHT22;10905;50.822;4.336;2022-07-29T07:38:00;20.40;99.90
21487;DHT22;10905;50.822;4.336;2022-07-29T07:40:26;20.50;99.90
21487;DHT22;10905;50.822;4.336;2022-07-29T07:42:51;20.40;99.90
21487;DHT22;10905;50.822;4.336;2022-07-29T07:45:17;20.50;99.90
21487;DHT22;10905;50.822;4.336;2022-07-29T07:47:43;20.40;99.90
21487;DHT22;10905;50.822;4.336;2022-07-29T07:50:09;20.60;99.90
21487;DHT22;10905;50.822;4.336;2022-07-29T07:52:36;20.30;99.90
21487;DHT22;10905;50.822;4.336;2022-07-29T07:55:10;20.50;99.90
21487;DHT22;10905;50.822;4.336;2022-07-29T07:57:36;20.70;99.90
21487;DHT22;10905;50.822;4.336;2022-07-29T08:00:02;20.70;99.90
21487;DHT22;10905;50.822;4.336;2022-07-29T08:02:28;20.80;99.90
21487;DHT22;10905;50.822;4.336;2022-07-29T08:04:54;20.90;99.90
21487;DHT22;10905;50.822;4.336;2022-07-29T08:07:19;20.90;99.90
21487;DHT22;10905;50.822;4.336;2022-07-29T08:09:45;20.60;99.90
21487;DHT22;10905;50.822;4.336;2022-07-29T08:12:10;20.60;99.90
21487;DHT22;10905;50.822;4.336;2022-07-29T08:14:36;20.80;99.90
21487;DHT22;10905;50.822;4.336;2022-07-29T08:17:02;21.00;99.90
21487;DHT22;10905;50.822;4.336;2022-07-29T08:19:27;21.10;99.90
21487;DHT22;10905;50.822;4.336;2022-07-29T08:21:53;21.30;99.90
21487;DHT22;10905;50.822;4.336;2022-07-29T08:24:19;21.30;99.90
21487;DHT22;10905;50.822;4.336;2022-07-29T08:27:03;21.10;99.90
21487;DHT22;10905;50.822;4.336;2022-07-29T08:29:28;21.30;99.90
21487;DHT22;10905;50.822;4.336;2022-07-29T08:31:54;21.40;99.90
21487;DHT22;10905;50.822;4.336;2022-07-29T08:34:19;21.50;99.90
21487;DHT22;10905;50.822;4.336;2022-07-29T08:36:45;21.40;99.90
21487;DHT22;10905;50.822;4.336;2022-07-29T08:39:10;21.40;99.90
21487;DHT22;10905;50.822;4.336;2022-07-29T08:41:36;21.70;99.90
21487;DHT22;10905;50.822;4.336;2022-07-29T08:44:01;21.70;99.90
21487;DHT22;10905;50.822;4.336;2022-07-29T08:46:27;21.80;99.90
21487;DHT22;10905;50.822;4.336;2022-07-29T08:48:52;21.90;99.90
21487;DHT22;10905;50.822;4.336;2022-07-29T08:51:19;22.10;99.90
21487;DHT22;10905;50.822;4.336;2022-07-29T08:53:45;22.30;99.90
21487;DHT22;10905;50.822;4.336;2022-07-29T08:56:13;22.30;99.90
21487;DHT22;10905;50.822;4.336;2022-07-29T08:58:39;22.30;99.90
21487;DHT22;10905;50.822;4.336;2022-07-29T09:01:05;22.20;99.90
21487;DHT22;10905;50.822;4.336;2022-07-29T09:03:31;22.20;99.90
21487;DHT22;10905;50.822;4.336;2022-07-29T09:05:58;22.40;99.90
21487;DHT22;10905;50.822;4.336;2022-07-29T09:08:23;22.50;99.90
21487;DHT22;10905;50.822;4.336;2022-07-29T09:10:49;22.60;99.90
21487;DHT22;10905;50.822;4.336;2022-07-29T09:13:16;22.70;99.90
21487;DHT22;10905;50.822;4.336;2022-07-29T09:15:41;22.90;99.90
21487;DHT22;10905;50.822;4.336;2022-07-29T09:18:07;23.00;99.90
21487;DHT22;10905;50.822;4.336;2022-07-29T09:20:32;22.90;99.90
21487;DHT22;10905;50.822;4.336;2022-07-29T09:23:17;23.00;99.90
21487;DHT22;10905;50.822;4.336;2022-07-29T09:25:42;22.80;99.90
21487;DHT22;10905;50.822;4.336;2022-07-29T09:28:14;22.90;99.90
21487;DHT22;10905;50.822;4.336;2022-07-29T09:30:49;22.90;99.90
21487;DHT22;10905;50.822;4.336;2022-07-29T09:33:15;22.90;99.90
21487;DHT22;10905;50.822;4.336;2022-07-29T09:35:41;23.00;99.90
21487;DHT22;10905;50.822;4.336;2022-07-29T09:38:12;23.00;99.90
21487;DHT22;10905;50.822;4.336;2022-07-29T09:40:38;23.00;99.90
21487;DHT22;10905;50.822;4.336;2022-07-29T09:43:11;23.30;99.90
21487;DHT22;10905;50.822;4.336;2022-07-29T09:45:37;23.40;99.90
21487;DHT22;10905;50.822;4.336;2022-07-29T09:48:13;23.40;99.90
21487;DHT22;10905;50.822;4.336;2022-07-29T09:50:39;23.50;99.90
21487;DHT22;10905;50.822;4.336;2022-07-29T09:53:05;23.40;99.90
21487;DHT22;10905;50.822;4.336;2022-07-29T09:55:31;23.50;99.90
21487;DHT22;10905;50.822;4.336;2022-07-29T10:00:52;23.50;99.90
21487;DHT22;10905;50.822;4.336;2022-07-29T10:03:18;23.50;99.90
21487;DHT22;10905;50.822;4.336;2022-07-29T10:05:43;23.50;99.90
21487;DHT22;10905;50.822;4.336;2022-07-29T10:08:09;23.30;99.90
21487;DHT22;10905;50.822;4.336;2022-07-29T10:10:36;23.30;99.90
21487;DHT22;10905;50.822;4.336;2022-07-29T10:13:06;23.40;99.90
21487;DHT22;10905;50.822;4.336;2022-07-29T10:15:32;23.60;99.90
21487;DHT22;10905;50.822;4.336;2022-07-29T10:17:59;23.50;99.90
21487;DHT22;10905;50.822;4.336;2022-07-29T10:20:25;23.50;99.90
21487;DHT22;10905;50.822;4.336;2022-07-29T10:22:51;23.70;99.90
21487;DHT22;10905;50.822;4.336;2022-07-29T10:25:17;23.70;99.90
21487;DHT22;10905;50.822;4.336;2022-07-29T10:27:44;23.80;99.90
21487;DHT22;10905;50.822;4.336;2022-07-29T10:30:10;23.90;99.90
21487;DHT22;10905;50.822;4.336;2022-07-29T10:35:28;24.10;99.90
21487;DHT22;10905;50.822;4.336;2022-07-29T10:38:21;24.40;99.90
21487;DHT22;10905;50.822;4.336;2022-07-29T10:40:48;24.20;99.90
21487;DHT22;10905;50.822;4.336;2022-07-29T10:43:36;24.30;99.90
21487;DHT22;10905;50.822;4.336;2022-07-29T10:46:03;24.40;99.90
21487;DHT22;10905;50.822;4.336;2022-07-29T10:48:29;24.70;99.90
21487;DHT22;10905;50.822;4.336;2022-07-29T10:50:58;25.00;99.90
21487;DHT22;10905;50.822;4.336;2022-07-29T10:53:45;24.90;99.90
21487;DHT22;10905;50.822;4.336;2022-07-29T10:56:26;24.90;99.90
21487;DHT22;10905;50.822;4.336;2022-07-29T11:01:37;24.90;99.80
21487;DHT22;10905;50.822;4.336;2022-07-29T11:04:02;25.10;99.90
21487;DHT22;10905;50.822;4.336;2022-07-29T11:07:05;25.20;99.80
21487;DHT22;10905;50.822;4.336;2022-07-29T11:09:15;25.10;99.70
21487;DHT22;10905;50.822;4.336;2022-07-29T11:11:42;25.10;99.20
21487;DHT22;10905;50.822;4.336;2022-07-29T11:14:07;24.90;99.50
21487;DHT22;10905;50.822;4.336;2022-07-29T11:19:20;24.90;98.90
21487;DHT22;10905;50.822;4.336;2022-07-29T11:21:46;24.90;97.80
21487;DHT22;10905;50.822;4.336;2022-07-29T11:24:33;25.00;97.00
21487;DHT22;10905;50.822;4.336;2022-07-29T11:29:31;25.40;97.60
21487;DHT22;10905;50.822;4.336;2022-07-29T11:32:08;25.50;96.50
21487;DHT22;10905;50.822;4.336;2022-07-29T11:34:33;25.40;96.60
21487;DHT22;10905;50.822;4.336;2022-07-29T11:39:42;25.60;96.30
21487;DHT22;10905;50.822;4.336;2022-07-29T11:47:27;25.80;96.30
21487;DHT22;10905;50.822;4.336;2022-07-29T11:49:54;25.90;94.90
21487;DHT22;10905;50.822;4.336;2022-07-29T11:52:20;25.50;95.60
21487;DHT22;10905;50.822;4.336;2022-07-29T11:54:49;25.50;95.90
21487;DHT22;10905;50.822;4.336;2022-07-29T11:57:18;25.60;94.90
21487;DHT22;10905;50.822;4.336;2022-07-29T11:59:45;25.70;95.30
21487;DHT22;10905;50.822;4.336;2022-07-29T12:02:11;25.70;94.80
21487;DHT22;10905;50.822;4.336;2022-07-29T12:07:17;26.10;95.30
21487;DHT22;10905;50.822;4.336;2022-07-29T12:09:50;26.40;94.00
21487;DHT22;10905;50.822;4.336;2022-07-29T12:12:16;26.30;93.90
21487;DHT22;10905;50.822;4.336;2022-07-29T12:14:42;25.90;94.60
21487;DHT22;10905;50.822;4.336;2022-07-29T12:17:24;26.00;95.00
21487;DHT22;10905;50.822;4.336;2022-07-29T12:19:51;26.20;94.80
21487;DHT22;10905;50.822;4.336;2022-07-29T12:22:29;26.20;94.50
21487;DHT22;10905;50.822;4.336;2022-07-29T12:25:00;26.40;95.10
21487;DHT22;10905;50.822;4.336;2022-07-29T12:27:26;26.60;94.10
21487;DHT22;10905;50.822;4.336;2022-07-29T12:29:58;26.50;93.90
21487;DHT22;10905;50.822;4.336;2022-07-29T12:32:31;26.70;93.30
21487;DHT22;10905;50.822;4.336;2022-07-29T12:34:57;26.70;92.90
21487;DHT22;10905;50.822;4.336;2022-07-29T12:37:23;26.80;93.20
21487;DHT22;10905;50.822;4.336;2022-07-29T12:39:49;26.80;92.90
21487;DHT22;10905;50.822;4.336;2022-07-29T12:42:15;26.50;93.10
21487;DHT22;10905;50.822;4.336;2022-07-29T12:47:10;26.40;93.70
21487;DHT22;10905;50.822;4.336;2022-07-29T12:49:35;26.50;94.00
21487;DHT22;10905;50.822;4.336;2022-07-29T12:52:01;26.90;92.90
21487;DHT22;10905;50.822;4.336;2022-07-29T12:54:46;27.00;92.80
21487;DHT22;10905;50.822;4.336;2022-07-29T12:57:12;27.10;92.80
21487;DHT22;10905;50.822;4.336;2022-07-29T12:59:38;27.30;92.90
21487;DHT22;10905;50.822;4.336;2022-07-29T13:02:03;27.40;92.30
21487;DHT22;10905;50.822;4.336;2022-07-29T13:06:58;27.30;92.00
21487;DHT22;10905;50.822;4.336;2022-07-29T13:09:35;27.10;92.50
21487;DHT22;10905;50.822;4.336;2022-07-29T13:12:00;27.00;92.70
21487;DHT22;10905;50.822;4.336;2022-07-29T13:14:34;27.20;91.90
21487;DHT22;10905;50.822;4.336;2022-07-29T13:22:21;26.80;92.40
21487;DHT22;10905;50.822;4.336;2022-07-29T13:24:54;26.90;93.00
21487;DHT22;10905;50.822;4.336;2022-07-29T13:27:21;27.00;93.40
21487;DHT22;10905;50.822;4.336;2022-07-29T13:29:46;27.00;92.30
21487;DHT22;10905;50.822;4.336;2022-07-29T13:32:12;27.00;92.20
21487;DHT22;10905;50.822;4.336;2022-07-29T13:34:38;26.90;92.40
21487;DHT22;10905;50.822;4.336;2022-07-29T13:37:04;27.10;92.40
21487;DHT22;10905;50.822;4.336;2022-07-29T13:39:30;27.20;92.10
21487;DHT22;10905;50.822;4.336;2022-07-29T13:41:55;27.30;92.00
21487;DHT22;10905;50.822;4.336;2022-07-29T13:44:21;27.50;92.20
21487;DHT22;10905;50.822;4.336;2022-07-29T13:46:46;27.60;92.40
21487;DHT22;10905;50.822;4.336;2022-07-29T13:49:12;27.80;91.70
21487;DHT22;10905;50.822;4.336;2022-07-29T13:51:38;27.90;91.30
21487;DHT22;10905;50.822;4.336;2022-07-29T13:54:03;27.90;91.60
21487;DHT22;10905;50.822;4.336;2022-07-29T13:56:29;27.80;90.90
21487;DHT22;10905;50.822;4.336;2022-07-29T13:58:54;27.30;90.80
21487;DHT22;10905;50.822;4.336;2022-07-29T14:01:20;27.50;90.10
21487;DHT22;10905;50.822;4.336;2022-07-29T14:03:45;27.40;90.40
21487;DHT22;10905;50.822;4.336;2022-07-29T14:06:11;27.40;90.10
21487;DHT22;10905;50.822;4.336;2022-07-29T14:08:36;27.50;90.20
21487;DHT22;10905;50.822;4.336;2022-07-29T14:11:02;27.50;89.10
21487;DHT22;10905;50.822;4.336;2022-07-29T14:13:27;27.50;88.90
21487;DHT22;10905;50.822;4.336;2022-07-29T14:15:53;27.80;87.40
21487;DHT22;10905;50.822;4.336;2022-07-29T14:18:18;27.70;88.50
21487;DHT22;10905;50.822;4.336;2022-07-29T14:20:44;27.80;87.60
21487;DHT22;10905;50.822;4.336;2022-07-29T14:23:09;28.30;86.00
21487;DHT22;10905;50.822;4.336;2022-07-29T14:25:35;28.00;87.00
21487;DHT22;10905;50.822;4.336;2022-07-29T14:28:01;27.90;87.30
21487;DHT22;10905;50.822;4.336;2022-07-29T14:30:26;27.40;89.20
21487;DHT22;10905;50.822;4.336;2022-07-29T14:32:52;27.20;89.40
21487;DHT22;10905;50.822;4.336;2022-07-29T14:35:18;27.00;89.90
21487;DHT22;10905;50.822;4.336;2022-07-29T14:37:44;27.50;89.50
21487;DHT22;10905;50.822;4.336;2022-07-29T14:40:10;27.80;90.00
21487;DHT22;10905;50.822;4.336;2022-07-29T14:42:36;27.90;87.40
21487;DHT22;10905;50.822;4.336;2022-07-29T14:45:03;28.20;84.90
21487;DHT22;10905;50.822;4.336;2022-07-29T14:47:29;28.30;84.50
21487;DHT22;10905;50.822;4.336;2022-07-29T14:49:54;28.50;83.30
21487;DHT22;10905;50.822;4.336;2022-07-29T14:52:20;28.50;83.20
21487;DHT22;10905;50.822;4.336;2022-07-29T14:54:46;28.40;82.70
21487;DHT22;10905;50.822;4.336;2022-07-29T14:57:11;28.50;83.20
21487;DHT22;10905;50.822;4.336;2022-07-29T14:59:37;28.70;84.20
21487;DHT22;10905;50.822;4.336;2022-07-29T15:02:02;28.80;81.00
21487;DHT22;10905;50.822;4.336;2022-07-29T15:04:28;29.00;81.40
21487;DHT22;10905;50.822;4.336;2022-07-29T15:06:53;28.70;83.90
21487;DHT22;10905;50.822;4.336;2022-07-29T15:09:19;28.60;83.10
21487;DHT22;10905;50.822;4.336;2022-07-29T15:11:44;28.90;82.30
21487;DHT22;10905;50.822;4.336;2022-07-29T15:14:10;28.40;82.40
21487;DHT22;10905;50.822;4.336;2022-07-29T15:16:36;28.30;84.00
21487;DHT22;10905;50.822;4.336;2022-07-29T15:19:02;28.30;84.80
21487;DHT22;10905;50.822;4.336;2022-07-29T15:21:27;28.10;84.30
21487;DHT22;10905;50.822;4.336;2022-07-29T15:23:53;28.20;85.80
21487;DHT22;10905;50.822;4.336;2022-07-29T15:26:18;28.20;85.20
21487;DHT22;10905;50.822;4.336;2022-07-29T15:28:44;28.00;84.80
21487;DHT22;10905;50.822;4.336;2022-07-29T15:31:09;27.60;86.00
21487;DHT22;10905;50.822;4.336;2022-07-29T15:33:35;27.20;86.10
21487;DHT22;10905;50.822;4.336;2022-07-29T15:36:00;27.00;86.70
21487;DHT22;10905;50.822;4.336;2022-07-29T15:38:26;26.80;87.90
21487;DHT22;10905;50.822;4.336;2022-07-29T15:40:51;26.90;87.90
21487;DHT22;10905;50.822;4.336;2022-07-29T15:43:17;27.10;88.50
21487;DHT22;10905;50.822;4.336;2022-07-29T15:45:43;27.30;89.10
21487;DHT22;10905;50.822;4.336;2022-07-29T15:48:28;27.50;88.40
21487;DHT22;10905;50.822;4.336;2022-07-29T15:50:54;27.50;88.50
21487;DHT22;10905;50.822;4.336;2022-07-29T15:53:20;27.90;88.70
21487;DHT22;10905;50.822;4.336;2022-07-29T15:55:45;28.00;87.50
21487;DHT22;10905;50.822;4.336;2022-07-29T15:58:11;28.20;86.30
21487;DHT22;10905;50.822;4.336;2022-07-29T16:00:36;28.50;86.70
21487;DHT22;10905;50.822;4.336;2022-07-29T16:03:02;28.60;84.40
21487;DHT22;10905;50.822;4.336;2022-07-29T16:05:27;28.60;85.70
21487;DHT22;10905;50.822;4.336;2022-07-29T16:07:54;28.70;85.60
21487;DHT22;10905;50.822;4.336;2022-07-29T16:10:19;28.70;84.40
21487;DHT22;10905;50.822;4.336;2022-07-29T16:12:45;28.70;84.20
21487;DHT22;10905;50.822;4.336;2022-07-29T16:15:10;28.90;84.60